Snow/Ice From: 17-12-2017 10:00 Until: 18-12-2017 06:00 warning for: Snow/Ice Level: Yellow info button

Although rather usual in this region, locally or potentially dangerous phenomena are expected. (such as local winds, summer thunderstorms, rising streams or high waves) Be aware and pay attention to the latest weather updates, especially if you carry out activities exposed to weather or close to a stream or shoreline. 


Meteo18 Weather Cam more information Meteo18 Weather Cam


Thunder radar more information blitzortung!


warning for Snow/Ice more information rain snow radar


Visit our other weather sites:

Template documentation
and downloads

And another site



Weather Underground History page Text

Daily Summary for May 11, 2016 Units:  Metric    English   Both
« Previous Day
Next Day »
Daily Weekly Monthly Yearly Custom
  High: Low: Average:
Temperature: 18.5 °C 11.2 °C 14.1 °C
Dew Point: 15.2 °C 10.7 °C 12.6 °C
Humidity: 98 % 76 % 91 %
Wind Speed: 6.4 km/h 0.0 km/h 0.7 km/h
Wind Gust: 11.3 km/h - -
Wind:- - WSW
Pressure: 1005.3 hPa 999.9 hPa -
Precipitation: 4.8 mm    
Historical Graphs
 
 
Tabular Data for May 11, 2016
Time Temperature Dew Point Pressure Wind Wind Speed Wind Gust Humidity Rainfall Rate (Hourly)
00:02 11.9 °C 11.4 °C 1005.3 hPa Calm     97 % 0.0 mm
00:07 11.9 °C 11.4 °C 1005.3 hPa Calm     97 % 0.0 mm
00:12 11.8 °C 11.3 °C 1005.3 hPa Calm     97 % 0.0 mm
00:17 11.8 °C 11.2 °C 1005.0 hPa Calm     96 % 0.0 mm
00:22 11.8 °C 11.3 °C 1005.0 hPa Calm     97 % 0.0 mm
00:32 11.4 °C 10.8 °C 1005.0 hPa Calm   1.6 km/h 96 % 0.0 mm
00:42 11.3 °C 10.7 °C 1005.0 hPa Calm     96 % 0.0 mm
00:47 11.4 °C 10.9 °C 1005.0 hPa Calm     97 % 0.0 mm
00:52 11.4 °C 10.9 °C 1005.0 hPa Calm     97 % 0.0 mm
00:57 11.4 °C 10.9 °C 1005.3 hPa Calm     97 % 0.0 mm
01:02 11.5 °C 11.0 °C 1005.0 hPa Calm     97 % 0.0 mm
01:07 11.4 °C 10.9 °C 1005.0 hPa Calm     97 % 0.0 mm
01:12 11.5 °C 11.0 °C 1005.0 hPa Calm     97 % 0.0 mm
01:17 11.5 °C 11.0 °C 1005.0 hPa Calm     97 % 0.0 mm
01:22 11.6 °C 11.1 °C 1005.0 hPa Calm     97 % 0.0 mm
01:32 11.8 °C 11.3 °C 1005.3 hPa Calm     97 % 0.0 mm
01:37 11.9 °C 11.4 °C 1005.3 hPa Calm     97 % 0.0 mm
01:42 11.8 °C 11.3 °C 1005.0 hPa Calm     97 % 0.0 mm
01:47 11.8 °C 11.3 °C 1005.0 hPa Calm     97 % 0.0 mm
01:52 11.9 °C 11.4 °C 1005.0 hPa Calm     97 % 0.0 mm
01:57 11.9 °C 11.4 °C 1005.0 hPa Calm     97 % 0.0 mm
02:02 11.8 °C 11.3 °C 1005.0 hPa Calm     97 % 0.0 mm
02:07 11.8 °C 11.3 °C 1005.0 hPa Calm     97 % 0.0 mm
02:12 11.9 °C 11.4 °C 1004.6 hPa Calm     97 % 0.0 mm
02:17 11.9 °C 11.4 °C 1005.0 hPa Calm     97 % 0.0 mm
02:22 12.1 °C 11.6 °C 1004.6 hPa Calm     97 % 0.0 mm
02:27 12.1 °C 11.6 °C 1004.6 hPa Calm     97 % 0.0 mm
02:32 12.1 °C 11.6 °C 1004.6 hPa Calm     97 % 0.0 mm
02:37 12.1 °C 11.6 °C 1004.6 hPa Calm     97 % 0.0 mm
02:42 12.1 °C 11.6 °C 1004.3 hPa Calm     97 % 0.0 mm
02:47 12.0 °C 11.5 °C 1004.3 hPa Calm     97 % 0.0 mm
02:52 12.0 °C 11.5 °C 1004.3 hPa Calm     97 % 0.0 mm
02:57 12.0 °C 11.5 °C 1003.9 hPa Calm     97 % 0.0 mm
03:02 12.0 °C 11.5 °C 1003.9 hPa Calm     97 % 0.0 mm
03:07 11.9 °C 11.4 °C 1003.9 hPa Calm     97 % 0.0 mm
03:12 11.9 °C 11.4 °C 1003.9 hPa Calm     97 % 0.0 mm
03:17 11.8 °C 11.3 °C 1003.9 hPa Calm     97 % 0.0 mm
03:22 11.8 °C 11.3 °C 1003.9 hPa Calm     97 % 0.0 mm
03:27 11.8 °C 11.3 °C 1003.9 hPa Calm     97 % 0.0 mm
03:32 11.7 °C 11.2 °C 1003.6 hPa Calm     97 % 0.0 mm
03:42 11.9 °C 11.4 °C 1003.6 hPa Calm     97 % 0.0 mm
03:47 11.9 °C 11.4 °C 1003.6 hPa Calm     97 % 0.0 mm
03:52 11.9 °C 11.4 °C 1003.6 hPa Calm     97 % 0.0 mm
03:57 11.8 °C 11.3 °C 1003.6 hPa Calm     97 % 0.0 mm
04:02 11.8 °C 11.3 °C 1003.6 hPa Calm     97 % 0.0 mm
04:07 11.8 °C 11.3 °C 1003.6 hPa Calm     97 % 0.0 mm
04:12 11.9 °C 11.4 °C 1003.3 hPa Calm     97 % 0.0 mm
04:17 11.8 °C 11.3 °C 1003.3 hPa Calm     97 % 0.0 mm
04:22 11.8 °C 11.3 °C 1003.3 hPa Calm     97 % 0.0 mm
04:27 11.8 °C 11.3 °C 1003.6 hPa Calm     97 % 0.0 mm
04:32 11.7 °C 11.2 °C 1003.3 hPa Calm     97 % 0.0 mm
04:37 11.6 °C 11.1 °C 1003.6 hPa Calm     97 % 0.0 mm
04:42 11.6 °C 11.1 °C 1003.6 hPa Calm     97 % 0.0 mm
04:47 11.6 °C 11.1 °C 1003.6 hPa Calm     97 % 0.0 mm
04:52 11.5 °C 11.0 °C 1003.6 hPa Calm     97 % 0.0 mm
04:57 11.5 °C 11.0 °C 1003.3 hPa Calm     97 % 0.0 mm
05:07 11.5 °C 11.0 °C 1003.3 hPa Calm     97 % 0.0 mm
05:17 11.5 °C 11.0 °C 1003.3 hPa Calm     97 % 0.0 mm
05:22 11.4 °C 10.9 °C 1003.3 hPa Calm     97 % 0.0 mm
05:27 11.4 °C 10.9 °C 1003.3 hPa Calm     97 % 0.0 mm
05:32 11.6 °C 11.1 °C 1003.3 hPa Calm     97 % 0.0 mm
05:37 11.6 °C 11.1 °C 1003.3 hPa Calm     97 % 0.0 mm
05:42 11.5 °C 11.0 °C 1003.3 hPa Calm     97 % 0.0 mm
05:47 11.4 °C 10.9 °C 1003.3 hPa Calm     97 % 0.0 mm
05:52 11.4 °C 10.9 °C 1003.3 hPa Calm     97 % 0.0 mm
05:57 11.4 °C 10.9 °C 1003.3 hPa Calm     97 % 0.0 mm
06:02 11.4 °C 10.9 °C 1003.3 hPa Calm     97 % 0.0 mm
06:07 11.4 °C 10.9 °C 1003.6 hPa Calm     97 % 0.0 mm
06:12 11.5 °C 11.0 °C 1003.6 hPa Calm     97 % 0.0 mm
06:22 11.4 °C 10.9 °C 1003.3 hPa Calm     97 % 0.0 mm
06:32 11.3 °C 10.8 °C 1002.9 hPa Calm     97 % 0.0 mm
06:37 11.2 °C 10.7 °C 1002.9 hPa Calm     97 % 0.0 mm
06:42 11.3 °C 10.8 °C 1002.9 hPa Calm     97 % 0.0 mm
06:47 11.4 °C 10.9 °C 1002.9 hPa Calm     97 % 0.0 mm
06:52 11.4 °C 10.9 °C 1002.9 hPa Calm     97 % 0.0 mm
06:57 11.4 °C 10.9 °C 1002.6 hPa Calm   4.8 km/h 97 % 0.0 mm
07:02 11.4 °C 10.9 °C 1002.6 hPa Calm   4.8 km/h 97 % 0.0 mm
07:12 11.5 °C 11.0 °C 1002.6 hPa Calm     97 % 0.0 mm
07:17 11.7 °C 11.4 °C 1002.6 hPa Calm     98 % 0.0 mm
07:22 11.8 °C 11.5 °C 1002.6 hPa Calm     98 % 0.0 mm
07:27 11.9 °C 11.6 °C 1002.6 hPa Calm     98 % 0.0 mm
07:32 12.0 °C 11.7 °C 1002.6 hPa Calm     98 % 0.0 mm
07:37 12.1 °C 11.8 °C 1002.6 hPa Calm     98 % 0.0 mm
07:42 12.1 °C 11.8 °C 1002.6 hPa Calm     98 % 0.0 mm
07:47 12.1 °C 11.6 °C 1002.6 hPa Calm     97 % 0.0 mm
07:52 12.2 °C 11.7 °C 1002.6 hPa Calm     97 % 0.0 mm
07:57 12.3 °C 12.0 °C 1002.6 hPa Calm     98 % 0.0 mm
08:02 12.4 °C 12.1 °C 1002.9 hPa Calm     98 % 0.0 mm
08:07 12.6 °C 12.3 °C 1002.9 hPa Calm     98 % 0.0 mm
08:12 12.7 °C 12.4 °C 1002.9 hPa Calm     98 % 0.0 mm
08:22 12.6 °C 12.1 °C 1002.9 hPa Calm   4.8 km/h 97 % 0.0 mm
08:32 12.7 °C 12.2 °C 1002.9 hPa Calm   4.8 km/h 97 % 0.0 mm
08:37 12.6 °C 12.1 °C 1002.9 hPa Calm   1.6 km/h 97 % 0.0 mm
08:47 12.6 °C 12.1 °C 1002.9 hPa Calm   1.6 km/h 97 % 0.0 mm
08:52 12.6 °C 12.1 °C 1002.9 hPa WSW 1.6 km/h 1.6 km/h 97 % 0.3 mm
08:57 12.6 °C 12.1 °C 1002.9 hPa Calm   1.6 km/h 97 % 0.3 mm
09:02 12.6 °C 12.1 °C 1002.9 hPa Calm   1.6 km/h 97 % 0.3 mm
09:07 12.7 °C 12.2 °C 1002.9 hPa Calm   1.6 km/h 97 % 0.3 mm
09:12 12.8 °C 12.3 °C 1002.9 hPa Calm   1.6 km/h 97 % 0.3 mm
09:17 12.9 °C 12.4 °C 1002.9 hPa Calm   1.6 km/h 97 % 0.3 mm
09:22 13.0 °C 12.5 °C 1002.9 hPa Calm   1.6 km/h 97 % 0.3 mm
09:27 13.1 °C 12.6 °C 1002.9 hPa Calm   1.6 km/h 97 % 0.3 mm
09:32 13.4 °C 12.9 °C 1002.9 hPa Calm   1.6 km/h 97 % 0.3 mm
09:37 13.6 °C 13.1 °C 1002.6 hPa Calm     97 % 0.3 mm
09:42 13.8 °C 13.3 °C 1002.6 hPa Calm   3.2 km/h 97 % 0.3 mm
09:47 13.8 °C 13.0 °C 1002.6 hPa Calm   3.2 km/h 95 % 0.3 mm
09:52 14.1 °C 13.0 °C 1002.6 hPa Calm   3.2 km/h 93 % 0.0 mm
09:57 14.2 °C 12.8 °C 1002.6 hPa West 1.6 km/h 3.2 km/h 91 % 0.0 mm
10:02 14.3 °C 12.7 °C 1002.6 hPa Calm   4.8 km/h 90 % 0.0 mm
10:07 14.2 °C 12.4 °C 1002.6 hPa NW 3.2 km/h 4.8 km/h 89 % 0.0 mm
10:12 14.3 °C 12.7 °C 1002.6 hPa NW 1.6 km/h 4.8 km/h 90 % 0.0 mm
10:17 14.3 °C 12.7 °C 1002.6 hPa WSW 1.6 km/h 4.8 km/h 90 % 0.0 mm
10:27 14.6 °C 12.8 °C 1002.6 hPa Calm   4.8 km/h 89 % 0.0 mm
10:32 14.8 °C 12.7 °C 1002.6 hPa NW 1.6 km/h 4.8 km/h 87 % 0.0 mm
10:37 14.9 °C 12.8 °C 1002.3 hPa Calm   4.8 km/h 87 % 0.0 mm
10:42 15.2 °C 12.9 °C 1002.3 hPa WSW 1.6 km/h 4.8 km/h 86 % 0.0 mm
10:47 15.4 °C 13.1 °C 1002.6 hPa Calm   6.4 km/h 86 % 0.0 mm
10:57 15.8 °C 13.1 °C 1002.3 hPa Calm   6.4 km/h 84 % 0.0 mm
11:02 15.8 °C 13.1 °C 1002.3 hPa NW 1.6 km/h 6.4 km/h 84 % 0.0 mm
11:12 15.9 °C 13.6 °C 1002.3 hPa Calm   6.4 km/h 86 % 0.0 mm
11:17 16.3 °C 13.8 °C 1002.3 hPa NW 1.6 km/h 6.4 km/h 85 % 0.0 mm
11:22 16.3 °C 13.2 °C 1002.3 hPa West 3.2 km/h 6.4 km/h 82 % 0.0 mm
11:27 16.6 °C 13.5 °C 1002.3 hPa Calm   6.4 km/h 82 % 0.0 mm
11:32 16.7 °C 13.0 °C 1002.3 hPa West 1.6 km/h 6.4 km/h 79 % 0.0 mm
11:37 16.4 °C 12.7 °C 1002.3 hPa West 3.2 km/h 4.8 km/h 79 % 0.0 mm
11:42 16.2 °C 12.9 °C 1002.3 hPa Calm   4.8 km/h 81 % 0.0 mm
11:47 16.3 °C 13.2 °C 1002.3 hPa Calm   4.8 km/h 82 % 0.0 mm
11:52 16.3 °C 13.4 °C 1002.3 hPa Calm   4.8 km/h 83 % 0.0 mm
12:02 16.3 °C 12.8 °C 1002.3 hPa Calm   4.8 km/h 80 % 0.0 mm
12:07 16.2 °C 12.7 °C 1002.3 hPa Calm   4.8 km/h 80 % 0.0 mm
12:12 16.3 °C 13.2 °C 1002.3 hPa Calm   3.2 km/h 82 % 0.0 mm
12:17 16.5 °C 13.4 °C 1002.3 hPa Calm   4.8 km/h 82 % 0.0 mm
12:22 16.8 °C 13.9 °C 1002.3 hPa WSW 3.2 km/h 4.8 km/h 83 % 0.0 mm
12:27 16.9 °C 13.4 °C 1002.3 hPa Calm   4.8 km/h 80 % 0.0 mm
12:32 17.3 °C 13.4 °C 1001.9 hPa West 3.2 km/h 4.8 km/h 78 % 0.0 mm
12:42 17.3 °C 13.6 °C 1001.9 hPa WSW 1.6 km/h 6.4 km/h 79 % 0.0 mm
12:47 17.0 °C 13.5 °C 1001.9 hPa Calm   6.4 km/h 80 % 0.0 mm
12:52 17.2 °C 13.7 °C 1001.9 hPa Calm   6.4 km/h 80 % 0.0 mm
12:57 17.1 °C 13.4 °C 1001.9 hPa WNW 1.6 km/h 4.8 km/h 79 % 0.0 mm
13:02 17.0 °C 13.7 °C 1001.9 hPa Calm   3.2 km/h 81 % 0.0 mm
13:07 17.0 °C 13.9 °C 1002.3 hPa Calm   3.2 km/h 82 % 0.0 mm
13:12 16.9 °C 13.4 °C 1002.3 hPa NNW 1.6 km/h 4.8 km/h 80 % 0.0 mm
13:17 16.7 °C 13.4 °C 1001.9 hPa West 1.6 km/h 4.8 km/h 81 % 0.0 mm
13:22 16.6 °C 13.9 °C 1001.9 hPa SW 1.6 km/h 6.4 km/h 84 % 0.0 mm
13:27 17.1 °C 14.6 °C 1001.9 hPa SW 1.6 km/h 6.4 km/h 85 % 0.0 mm
13:32 17.3 °C 14.4 °C 1001.9 hPa Calm   6.4 km/h 83 % 0.0 mm
13:42 17.3 °C 14.6 °C 1001.9 hPa Calm   4.8 km/h 84 % 0.0 mm
13:47 17.3 °C 14.2 °C 1001.9 hPa WSW 1.6 km/h 6.4 km/h 82 % 0.0 mm
13:57 17.1 °C 14.7 °C 1001.9 hPa SW 3.2 km/h 6.4 km/h 86 % 0.0 mm
14:02 17.2 °C 14.7 °C 1001.9 hPa WSW 3.2 km/h 6.4 km/h 85 % 0.0 mm
14:07 17.2 °C 14.7 °C 1001.6 hPa WSW 3.2 km/h 6.4 km/h 85 % 0.0 mm
14:12 17.2 °C 14.3 °C 1001.6 hPa WSW 3.2 km/h 6.4 km/h 83 % 0.0 mm
14:17 17.2 °C 14.3 °C 1001.6 hPa WSW 3.2 km/h 8.0 km/h 83 % 0.0 mm
14:22 17.1 °C 14.4 °C 1001.6 hPa SSW 1.6 km/h 8.0 km/h 84 % 0.0 mm
14:27 17.1 °C 14.2 °C 1001.6 hPa WSW 1.6 km/h 8.0 km/h 83 % 0.0 mm
14:32 16.9 °C 14.0 °C 1001.6 hPa Calm   8.0 km/h 83 % 0.0 mm
14:37 16.9 °C 14.2 °C 1001.6 hPa SSW 1.6 km/h 8.0 km/h 84 % 0.0 mm
14:42 16.6 °C 13.9 °C 1001.6 hPa Calm   8.0 km/h 84 % 0.0 mm
14:47 16.3 °C 13.6 °C 1001.6 hPa Calm   6.4 km/h 84 % 0.0 mm
14:57 15.8 °C 13.8 °C 1001.6 hPa WSW 3.2 km/h 6.4 km/h 88 % 0.5 mm
15:02 15.6 °C 14.0 °C 1001.6 hPa Calm   6.4 km/h 90 % 1.0 mm
15:07 15.3 °C 13.8 °C 1001.9 hPa Calm   6.4 km/h 91 % 1.8 mm
15:12 14.9 °C 13.4 °C 1001.9 hPa Calm   4.8 km/h 91 % 3.3 mm
15:22 14.7 °C 13.7 °C 1001.9 hPa SW 3.2 km/h 8.0 km/h 94 % 4.6 mm
15:27 14.8 °C 13.8 °C 1001.6 hPa SW 3.2 km/h 8.0 km/h 94 % 4.6 mm
15:32 15.1 °C 14.1 °C 1001.6 hPa WSW 1.6 km/h 8.0 km/h 94 % 4.6 mm
15:42 15.4 °C 14.4 °C 1001.6 hPa West 3.2 km/h 9.7 km/h 94 % 4.6 mm
15:47 15.6 °C 14.3 °C 1001.6 hPa South 3.2 km/h 9.7 km/h 92 % 4.6 mm
15:52 15.7 °C 14.2 °C 1001.6 hPa WSW 3.2 km/h 11.3 km/h 91 % 4.3 mm
15:57 15.8 °C 14.3 °C 1001.6 hPa WNW 1.6 km/h 11.3 km/h 91 % 4.1 mm
16:02 15.8 °C 14.3 °C 1001.2 hPa WSW 3.2 km/h 11.3 km/h 91 % 3.3 mm
16:07 15.7 °C 14.1 °C 1001.6 hPa SW 1.6 km/h 9.7 km/h 90 % 2.5 mm
16:12 15.8 °C 14.3 °C 1001.6 hPa West 1.6 km/h 9.7 km/h 91 % 1.5 mm
16:17 16.3 °C 14.8 °C 1001.6 hPa SW 4.8 km/h 9.7 km/h 91 % 0.3 mm
16:22 16.2 °C 14.2 °C 1001.2 hPa WSW 4.8 km/h 9.7 km/h 88 % 0.0 mm
16:27 16.2 °C 14.4 °C 1001.2 hPa WSW 1.6 km/h 9.7 km/h 89 % 0.0 mm
16:32 16.4 °C 14.2 °C 1001.2 hPa Calm   9.7 km/h 87 % 0.0 mm
16:37 16.4 °C 14.4 °C 1001.2 hPa Calm   9.7 km/h 88 % 0.0 mm
16:47 16.5 °C 14.3 °C 1001.2 hPa WSW 6.4 km/h 6.4 km/h 87 % 0.0 mm
16:52 16.4 °C 14.1 °C 1001.2 hPa Calm   6.4 km/h 86 % 0.0 mm
16:57 16.7 °C 14.5 °C 1001.2 hPa West 4.8 km/h 6.4 km/h 87 % 0.0 mm
17:07 17.6 °C 14.9 °C 1000.9 hPa West 1.6 km/h 9.7 km/h 84 % 0.0 mm
17:12 17.9 °C 15.2 °C 1000.9 hPa SSW 3.2 km/h 9.7 km/h 84 % 0.0 mm
17:17 17.9 °C 15.2 °C 1000.6 hPa WSW 1.6 km/h 9.7 km/h 84 % 0.0 mm
17:22 17.9 °C 15.0 °C 1000.9 hPa SW 4.8 km/h 9.7 km/h 83 % 0.0 mm
17:27 17.9 °C 14.6 °C 1000.6 hPa WSW 4.8 km/h 9.7 km/h 81 % 0.0 mm
17:37 17.8 °C 14.5 °C 1000.9 hPa WSW 6.4 km/h 8.0 km/h 81 % 0.0 mm
17:42 17.9 °C 14.0 °C 1000.6 hPa SW 3.2 km/h 8.0 km/h 78 % 0.0 mm
17:52 17.1 °C 13.8 °C 1000.6 hPa SW 1.6 km/h 9.7 km/h 81 % 0.0 mm
17:57 17.5 °C 14.2 °C 1000.6 hPa WSW 4.8 km/h 9.7 km/h 81 % 0.0 mm
18:02 17.7 °C 13.8 °C 1000.6 hPa WNW 1.6 km/h 9.7 km/h 78 % 0.0 mm
18:07 17.9 °C 14.0 °C 1000.2 hPa WSW 4.8 km/h 11.3 km/h 78 % 0.0 mm
18:12 17.9 °C 14.2 °C 1000.2 hPa West 3.2 km/h 11.3 km/h 79 % 0.0 mm
18:17 18.2 °C 14.3 °C 1000.2 hPa SE 1.6 km/h 11.3 km/h 78 % 0.0 mm
18:22 18.5 °C 14.2 °C 1000.2 hPa WSW 1.6 km/h 4.8 km/h 76 % 0.0 mm
18:32 18.2 °C 14.5 °C 1000.2 hPa West 1.6 km/h 4.8 km/h 79 % 0.0 mm
18:37 17.7 °C 14.4 °C 1000.2 hPa SW 1.6 km/h 4.8 km/h 81 % 0.0 mm
18:42 17.4 °C 14.3 °C 1000.2 hPa Calm   4.8 km/h 82 % 0.0 mm
18:47 17.2 °C 14.3 °C 1000.2 hPa Calm   4.8 km/h 83 % 0.0 mm
18:52 16.9 °C 14.2 °C 1000.2 hPa SW 1.6 km/h 4.8 km/h 84 % 0.0 mm
18:57 16.7 °C 14.2 °C 1000.2 hPa SW 1.6 km/h 3.2 km/h 85 % 0.0 mm
19:02 16.4 °C 14.1 °C 999.9 hPa Calm   4.8 km/h 86 % 0.0 mm
19:07 16.4 °C 14.2 °C 1000.2 hPa Calm   4.8 km/h 87 % 0.0 mm
19:12 16.4 °C 14.1 °C 1000.2 hPa Calm   4.8 km/h 86 % 0.0 mm
19:17 16.5 °C 13.8 °C 1000.2 hPa WSW 3.2 km/h 4.8 km/h 84 % 0.0 mm
19:22 16.7 °C 14.2 °C 1000.2 hPa Calm   4.8 km/h 85 % 0.0 mm
19:32 16.9 °C 13.8 °C 1000.2 hPa Calm   4.8 km/h 82 % 0.0 mm
19:37 16.9 °C 14.2 °C 1000.2 hPa Calm   4.8 km/h 84 % 0.0 mm
19:47 16.4 °C 13.3 °C 1000.2 hPa Calm   4.8 km/h 82 % 0.0 mm
19:52 16.1 °C 13.4 °C 1000.2 hPa Calm   3.2 km/h 84 % 0.0 mm
19:57 15.9 °C 13.2 °C 999.9 hPa Calm   3.2 km/h 84 % 0.0 mm
20:02 15.8 °C 13.1 °C 999.9 hPa Calm   3.2 km/h 84 % 0.0 mm
20:08 15.6 °C 13.1 °C 999.9 hPa Calm   3.2 km/h 85 % 0.0 mm
20:17 15.5 °C 13.3 °C 999.9 hPa Calm   1.6 km/h 87 % 0.0 mm
20:22 15.4 °C 13.4 °C 999.9 hPa Calm   1.6 km/h 88 % 0.0 mm
20:27 15.4 °C 13.4 °C 999.9 hPa Calm   4.8 km/h 88 % 0.0 mm
20:32 15.4 °C 13.4 °C 1000.2 hPa Calm   4.8 km/h 88 % 0.0 mm
20:37 15.3 °C 13.3 °C 999.9 hPa Calm   4.8 km/h 88 % 0.0 mm
20:42 15.2 °C 13.0 °C 1000.2 hPa Calm   1.6 km/h 87 % 0.0 mm
20:52 14.9 °C 12.9 °C 1000.2 hPa Calm   1.6 km/h 88 % 0.0 mm
20:57 14.6 °C 12.6 °C 1000.2 hPa Calm   1.6 km/h 88 % 0.0 mm
21:07 14.0 °C 12.4 °C 1000.6 hPa Calm     90 % 0.0 mm
21:17 13.9 °C 12.6 °C 1000.6 hPa Calm     92 % 0.0 mm
21:22 13.8 °C 12.7 °C 1000.6 hPa Calm     93 % 0.0 mm
21:27 13.8 °C 12.7 °C 1000.2 hPa Calm     93 % 0.0 mm
21:32 13.6 °C 12.3 °C 1000.2 hPa Calm   1.6 km/h 92 % 0.0 mm
21:37 13.4 °C 12.3 °C 1000.6 hPa Calm   1.6 km/h 93 % 0.0 mm
21:42 13.3 °C 12.2 °C 1000.2 hPa Calm   1.6 km/h 93 % 0.0 mm
21:47 13.1 °C 12.0 °C 1000.6 hPa Calm     93 % 0.0 mm
21:52 12.9 °C 11.8 °C 1000.6 hPa Calm     93 % 0.0 mm
21:57 12.8 °C 11.9 °C 1000.6 hPa Calm     94 % 0.0 mm
22:02 12.8 °C 11.9 °C 1000.6 hPa Calm     94 % 0.0 mm
22:07 12.8 °C 11.9 °C 1000.6 hPa Calm     94 % 0.0 mm
22:12 12.9 °C 12.0 °C 1000.6 hPa Calm     94 % 0.0 mm
22:17 12.9 °C 12.0 °C 1000.6 hPa Calm     94 % 0.0 mm
22:22 13.0 °C 12.2 °C 1000.6 hPa Calm     95 % 0.0 mm
22:27 13.1 °C 12.3 °C 1000.6 hPa Calm     95 % 0.0 mm
22:32 13.1 °C 12.3 °C 1000.6 hPa Calm     95 % 0.0 mm
22:42 13.2 °C 12.4 °C 1000.6 hPa Calm     95 % 0.0 mm
22:47 13.2 °C 12.4 °C 1000.6 hPa Calm     95 % 0.0 mm
22:52 13.3 °C 12.5 °C 1000.6 hPa Calm     95 % 0.0 mm
22:57 13.3 °C 12.5 °C 1000.6 hPa Calm     95 % 0.0 mm
23:02 13.3 °C 12.5 °C 1000.6 hPa Calm     95 % 0.0 mm
23:07 13.3 °C 12.5 °C 1000.6 hPa Calm     95 % 0.0 mm
23:12 13.3 °C 12.5 °C 1000.6 hPa Calm     95 % 0.0 mm
23:17 13.3 °C 12.5 °C 1000.6 hPa Calm     95 % 0.0 mm
23:22 13.4 °C 12.6 °C 1000.6 hPa Calm     95 % 0.0 mm
23:27 13.4 °C 12.6 °C 1000.6 hPa Calm     95 % 0.0 mm
23:32 13.4 °C 12.6 °C 1000.2 hPa Calm     95 % 0.0 mm
23:37 13.4 °C 12.6 °C 1000.6 hPa Calm     95 % 0.0 mm
23:42 13.4 °C 12.6 °C 1000.2 hPa Calm     95 % 0.0 mm
23:47 13.3 °C 12.5 °C 1000.6 hPa Calm     95 % 0.0 mm
23:52 13.3 °C 12.5 °C 1000.2 hPa Calm   1.6 km/h 95 % 0.0 mm
23:57 13.3 °C 12.5 °C 1000.2 hPa Calm   1.6 km/h 95 % 0.0 mm
Meteo18
Compliments of Weather Underground - 4 mb

Script developed by  Jim McMurry - jmcmurry@mwt.net Adapted for the template by  Wim van der Kuil - Leuven-Template.eu

You find our weather info also at:

European Weather Network

Weather Underground

Equipment we use:

Weather-station
Davis Vue

Weather-program
Meteohub

Weather-server
Raspberry PI 2 B+

Provider
1 and 1

Davis Vue

Meteohub

Raspberry PI 2 B+

1 and 1